Time;durP1;ratioP1;P1;durP2;ratioP2;P2;SDS_P1;SDS_P2;PMS_P1;PMS_P2;Temp;Humidity;BMP_temperature;BMP_pressure;BME280_temperature;BME280_humidity;BME280_pressure;Samples;Min_cycle;Max_cycle;Signal;HPM_P1;HPM_P2
2022/11/16 00:01:10;;;;;;;9.15;4.72;;;10.80;99.90;;;;;;4994292;28;20040;-79
2022/11/16 00:03:36;;;;;;;9.02;4.45;;;10.80;99.90;;;;;;5012601;28;20459;-79
2022/11/16 00:06:05;;;;;;;10.10;5.10;;;10.70;99.90;;;;;;5011979;28;20038;-78
2022/11/16 00:08:35;;;;;;;7.10;4.35;;;10.70;99.90;;;;;;5012317;28;20038;-78
2022/11/16 00:11:08;;;;;;;6.18;4.03;;;10.70;99.90;;;;;;5012177;28;20387;-79
2022/11/16 00:13:35;;;;;;;6.28;4.50;;;10.70;99.90;;;;;;4995872;28;20033;-80
2022/11/16 00:16:02;;;;;;;10.32;4.93;;;10.60;99.90;;;;;;5011623;28;20033;-79
2022/11/16 00:18:28;;;;;;;9.10;6.07;;;10.70;99.90;;;;;;4995664;28;20042;-80
2022/11/16 00:20:54;;;;;;;6.82;4.63;;;10.60;99.90;;;;;;4993510;28;20046;-79
2022/11/16 00:23:21;;;;;;;9.52;4.55;;;10.70;99.90;;;;;;5012027;28;20042;-79
2022/11/16 00:25:47;;;;;;;6.82;4.35;;;10.60;99.90;;;;;;4977960;28;20049;-79
2022/11/16 00:28:13;;;;;;;6.57;4.70;;;10.60;99.90;;;;;;5011854;28;20045;-79
2022/11/16 00:30:39;;;;;;;7.43;4.88;;;10.60;99.90;;;;;;5012742;28;20490;-79
2022/11/16 00:33:07;;;;;;;8.43;4.93;;;10.50;99.90;;;;;;4976757;28;20045;-79
2022/11/16 00:35:38;;;;;;;6.05;4.22;;;10.50;99.90;;;;;;4994256;28;20049;-79
2022/11/16 00:38:04;;;;;;;;;;;10.50;99.90;;;;;;5011077;28;20053;-79
2022/11/16 00:40:31;;;;;;;6.95;4.70;;;10.50;99.90;;;;;;5011703;28;19913;-79
2022/11/16 00:42:57;;;;;;;7.30;4.55;;;10.50;99.90;;;;;;4993517;28;20046;-79
2022/11/16 00:45:23;;;;;;;8.30;4.88;;;10.40;99.90;;;;;;5012273;28;20030;-79
2022/11/16 00:47:49;;;;;;;7.75;4.38;;;10.40;99.90;;;;;;5011675;28;20045;-78
2022/11/16 00:50:15;;;;;;;9.27;5.55;;;10.40;99.90;;;;;;5011499;28;20126;-79
2022/11/16 00:52:42;;;;;;;8.65;5.50;;;10.40;99.90;;;;;;4994034;28;20053;-79
2022/11/16 00:55:08;;;;;;;8.20;4.47;;;10.40;99.90;;;;;;5011007;28;20030;-78
2022/11/16 00:57:35;;;;;;;10.25;5.20;;;10.40;99.90;;;;;;4994663;28;20022;-79
2022/11/16 01:00:04;;;;;;;9.13;5.38;;;10.40;99.90;;;;;;4993162;28;20057;-79
2022/11/16 01:02:32;;;;;;;8.60;5.18;;;10.30;99.90;;;;;;4994037;28;20041;-79
2022/11/16 01:04:58;;;;;;;7.43;4.53;;;10.30;99.90;;;;;;4993147;28;20042;-79
2022/11/16 01:07:24;;;;;;;8.73;6.13;;;10.30;99.90;;;;;;5011858;28;20030;-79
2022/11/16 01:09:50;;;;;;;12.60;5.22;;;10.30;99.90;;;;;;5011630;28;20034;-79
2022/11/16 01:12:16;;;;;;;6.80;5.10;;;10.30;99.90;;;;;;5002401;28;20456;-79
2022/11/16 01:14:45;;;;;;;7.75;5.32;;;10.30;99.90;;;;;;5011913;28;20030;-79
2022/11/16 01:17:12;;;;;;;11.82;6.13;;;10.30;99.90;;;;;;4976712;28;20053;-79
2022/11/16 01:19:39;;;;;;;8.40;5.43;;;10.30;99.90;;;;;;5012173;28;20105;-79
2022/11/16 01:22:05;;;;;;;7.63;5.93;;;10.20;99.90;;;;;;4976476;28;20049;-79
2022/11/16 01:24:31;;;;;;;12.27;6.88;;;10.30;99.90;;;;;;5011778;28;20030;-80
2022/11/16 01:26:58;;;;;;;9.30;6.10;;;10.20;99.90;;;;;;4993136;28;20495;-79
2022/11/16 01:29:30;;;;;;;9.75;7.50;;;10.30;99.90;;;;;;4993838;28;20045;-80
2022/11/16 01:31:59;;;;;;;10.63;6.43;;;10.30;99.90;;;;;;4976934;28;20395;-80
2022/11/16 01:34:26;;;;;;;10.88;8.07;;;10.30;99.90;;;;;;4993612;28;20057;-79
2022/11/16 01:36:57;;;;;;;12.75;8.10;;;10.20;99.90;;;;;;4992816;28;20053;-80
2022/11/16 01:39:27;;;;;;;12.85;7.60;;;10.20;99.90;;;;;;4993791;28;20049;-80
2022/11/16 01:41:57;;;;;;;12.25;7.43;;;10.20;99.90;;;;;;4992700;28;20046;-80
2022/11/16 01:44:32;;;;;;;12.85;7.95;;;10.20;99.90;;;;;;4995915;28;20045;-79
2022/11/16 01:47:14;;;;;;;11.95;8.45;;;10.20;99.90;;;;;;4995978;28;20058;-79
2022/11/16 01:49:46;;;;;;;11.73;8.00;;;10.20;99.90;;;;;;4997689;28;20068;-79
2022/11/16 01:52:17;;;;;;;12.90;7.90;;;10.30;99.90;;;;;;4996325;28;20053;-79
2022/11/16 01:54:44;;;;;;;;;;;10.30;99.90;;;;;;4997535;28;20479;-78
2022/11/16 01:57:15;;;;;;;12.48;8.52;;;10.20;99.90;;;;;;4996129;28;19917;-79
2022/11/16 01:59:56;;;;;;;12.63;8.68;;;10.20;99.90;;;;;;4982121;28;20049;-79
2022/11/16 02:02:24;;;;;;;13.35;8.90;;;10.20;99.90;;;;;;4981017;28;20387;-79
2022/11/16 02:04:52;;;;;;;14.00;8.75;;;10.20;99.90;;;;;;4996988;28;20037;-78
2022/11/16 02:10:51;;;;;;;13.15;9.32;;;10.20;99.90;;;;;;5014703;28;20041;-79
2022/11/16 02:13:33;;;;;;;14.23;9.65;;;10.20;99.90;;;;;;5013972;28;20037;-79
2022/11/16 02:16:23;;;;;;;16.77;9.38;;;10.20;99.90;;;;;;4995885;28;20041;-78
2022/11/16 02:19:18;;;;;;;12.90;8.80;;;10.20;99.90;;;;;;4996453;28;20050;-79
2022/11/16 02:21:59;;;;;;;14.23;9.35;;;10.20;99.90;;;;;;5014619;28;20045;-78
2022/11/16 02:24:44;;;;;;;14.90;9.32;;;10.20;99.90;;;;;;5014367;28;20041;-78
2022/11/16 02:27:22;;;;;;;20.15;11.02;;;10.20;99.90;;;;;;4995649;28;20049;-78
2022/11/16 02:29:53;;;;;;;16.33;10.05;;;10.20;99.90;;;;;;4996646;28;20046;-78
2022/11/16 02:32:30;;;;;;;18.30;11.63;;;10.20;99.90;;;;;;5013809;28;20041;-78
2022/11/16 02:35:13;;;;;;;17.80;11.52;;;10.20;99.90;;;;;;4995918;28;20045;-79
2022/11/16 02:37:53;;;;;;;16.17;10.23;;;10.20;99.90;;;;;;4996907;28;20475;-79
2022/11/16 02:40:22;;;;;;;20.77;12.00;;;10.20;99.90;;;;;;4997394;28;20053;-79
2022/11/16 02:43:00;;;;;;;16.55;11.52;;;10.20;99.90;;;;;;4996119;28;20041;-78
2022/11/16 02:45:31;;;;;;;17.25;11.35;;;10.20;99.90;;;;;;4996351;28;20065;-78
2022/11/16 02:48:03;;;;;;;21.77;12.77;;;10.20;99.90;;;;;;4995528;28;20041;-79
2022/11/16 02:50:31;;;;;;;19.67;12.77;;;10.20;99.90;;;;;;4995870;28;20041;-78
2022/11/16 02:52:57;;;;;;;20.70;13.05;;;10.20;99.90;;;;;;5013277;28;20034;-78
2022/11/16 02:55:31;;;;;;;18.80;13.25;;;10.20;99.90;;;;;;4995487;28;20053;-78
2022/11/16 02:58:00;;;;;;;21.98;13.38;;;10.30;99.90;;;;;;4979642;28;20053;-79
2022/11/16 03:01:02;;;;;;;23.60;14.55;;;10.30;99.90;;;;;;4996044;28;20057;-78
2022/11/16 03:03:36;;;;;;;20.43;14.47;;;10.20;99.90;;;;;;5008722;28;20041;-77
2022/11/16 03:06:14;;;;;;;24.27;14.88;;;10.20;99.90;;;;;;5028189;28;20032;-78
2022/11/16 03:08:46;;;;;;;24.52;14.45;;;10.20;99.90;;;;;;4996585;28;20061;-78
2022/11/16 03:14:04;;;;;;;22.80;15.52;;;10.20;99.90;;;;;;4994980;28;20041;-79
2022/11/16 03:16:40;;;;;;;24.23;14.18;;;10.20;99.90;;;;;;4995766;28;20050;-78
2022/11/16 03:19:09;;;;;;;21.98;13.60;;;10.20;99.90;;;;;;5012227;28;20383;-78
2022/11/16 03:21:58;;;;;;;23.23;14.75;;;10.20;99.90;;;;;;5013323;28;20045;-78
2022/11/16 03:24:25;;;;;;;20.45;14.00;;;10.20;99.90;;;;;;5013122;28;20030;-78
2022/11/16 03:27:25;;;;;;;25.02;14.43;;;10.10;99.90;;;;;;4995090;28;20044;-78
2022/11/16 03:30:04;;;;;;;20.00;13.55;;;10.10;99.90;;;;;;4994782;28;20046;-78
2022/11/16 03:32:44;;;;;;;23.38;14.48;;;10.10;99.90;;;;;;4995293;28;20056;-77
2022/11/16 03:35:22;;;;;;;23.48;15.27;;;10.10;99.90;;;;;;5012365;28;20037;-78
2022/11/16 03:37:51;;;;;;;25.23;14.55;;;10.10;99.90;;;;;;5013264;28;20030;-78
2022/11/16 03:40:22;;;;;;;20.42;14.07;;;10.10;99.90;;;;;;4994163;28;20045;-78
2022/11/16 03:42:50;;;;;;;20.77;14.07;;;10.10;99.90;;;;;;4995219;28;20046;-79
2022/11/16 03:45:18;;;;;;;21.50;13.43;;;10.10;99.90;;;;;;4994157;28;20829;-78
2022/11/16 03:47:45;;;;;;;25.40;14.13;;;10.10;99.90;;;;;;5012842;28;20041;-78
2022/11/16 03:50:12;;;;;;;22.60;14.18;;;10.10;99.90;;;;;;4977857;28;20403;-77
2022/11/16 03:52:40;;;;;;;23.40;14.75;;;10.10;99.90;;;;;;4994725;28;20053;-77
2022/11/16 03:55:06;;;;;;;22.13;12.80;;;10.10;99.90;;;;;;4994159;28;20045;-78
2022/11/16 03:57:34;;;;;;;22.90;14.40;;;10.10;99.90;;;;;;4994722;28;20048;-77
2022/11/16 04:00:00;;;;;;;21.25;13.52;;;10.10;99.90;;;;;;4994075;28;20046;-77
2022/11/16 04:02:28;;;;;;;22.73;14.52;;;10.10;99.90;;;;;;4993966;28;20064;-77
2022/11/16 04:24:32;;;;;;;24.55;14.85;;;10.00;99.90;;;;;;4994510;28;20048;-77
2022/11/16 04:30:03;;;;;;;26.00;15.73;;;10.10;99.90;;;;;;4978472;28;20056;-77
2022/11/16 04:38:02;;;;;;;23.48;14.50;;;10.10;99.90;;;;;;4993779;28;20049;-77
2022/11/16 04:40:32;;;;;;;26.73;16.10;;;10.10;99.90;;;;;;4994095;28;20053;-79
2022/11/16 04:43:02;;;;;;;23.42;16.17;;;10.10;99.90;;;;;;4994283;28;20046;-80
2022/11/16 04:48:19;;;;;;;26.67;15.80;;;10.00;99.90;;;;;;4992795;28;20046;-79
2022/11/16 04:50:47;;;;;;;29.38;16.48;;;10.00;99.90;;;;;;4994038;28;20403;-81
2022/11/16 04:53:14;;;;;;;28.90;16.92;;;10.10;99.90;;;;;;4997553;28;20471;-78
2022/11/16 04:55:57;;;;;;;28.08;18.05;;;10.10;99.90;;;;;;4980733;28;20053;-79
2022/11/16 04:58:24;;;;;;;32.95;18.33;;;10.10;99.90;;;;;;4993400;28;20037;-79
2022/11/16 05:00:50;;;;;;;34.25;18.95;;;10.10;99.90;;;;;;4993926;28;20042;-77
2022/11/16 05:03:17;;;;;;;33.92;18.60;;;10.10;99.90;;;;;;4992800;28;20050;-78
2022/11/16 05:05:44;;;;;;;37.45;18.60;;;10.10;99.90;;;;;;4993892;28;20400;-78
2022/11/16 05:08:10;;;;;;;33.65;19.65;;;10.20;99.90;;;;;;5011204;28;20060;-78
2022/11/16 05:10:37;;;;;;;28.85;17.98;;;10.10;99.90;;;;;;4993518;28;20042;-78
2022/11/16 05:13:03;;;;;;;31.73;17.75;;;10.10;99.90;;;;;;4993654;28;20391;-78
2022/11/16 05:15:29;;;;;;;33.97;19.35;;;10.20;99.90;;;;;;4994016;28;20053;-78
2022/11/16 05:17:58;;;;;;;31.98;19.55;;;10.10;99.90;;;;;;4993931;28;20399;-78
2022/11/16 05:24:32;;;;;;;35.70;20.17;;;10.20;99.90;;;;;;4996939;28;20046;-78
2022/11/16 05:26:00;;;;;;;35.13;19.65;;;10.20;99.90;;;;;;4997548;28;20053;-78
2022/11/16 05:28:27;;;;;;;33.75;18.42;;;10.20;99.90;;;;;;4997131;28;20723;-80
2022/11/16 05:30:53;;;;;;;32.40;19.17;;;10.20;99.90;;;;;;5015932;28;20491;-80
2022/11/16 05:33:22;;;;;;;32.83;18.33;;;10.20;99.90;;;;;;4997696;28;20049;-80
2022/11/16 05:35:50;;;;;;;29.17;17.75;;;10.20;99.90;;;;;;4998404;28;20045;-80
2022/11/16 05:38:17;;;;;;;32.63;18.75;;;10.20;99.90;;;;;;4997473;28;20372;-80
2022/11/16 05:40:46;;;;;;;36.90;19.63;;;10.20;99.90;;;;;;4982261;28;20042;-79
2022/11/16 05:43:13;;;;;;;33.50;19.08;;;10.20;99.90;;;;;;4997963;28;20042;-80
2022/11/16 05:45:49;;;;;;;37.55;20.25;;;10.20;99.90;;;;;;4998424;28;20052;-79
2022/11/16 05:48:15;;;;;;;33.85;18.88;;;10.10;99.90;;;;;;5015784;28;20034;-80
2022/11/16 05:50:42;;;;;;;29.70;18.33;;;10.10;99.90;;;;;;4997665;28;20403;-79
2022/11/16 05:53:15;;;;;;;34.15;18.77;;;10.20;99.90;;;;;;4997779;28;20037;-80
2022/11/16 05:55:42;;;;;;;32.80;18.63;;;10.20;99.90;;;;;;4997793;28;20046;-75
2022/11/16 05:58:08;;;;;;;34.85;20.00;;;10.20;99.90;;;;;;4997313;28;20472;-80
2022/11/16 06:00:34;;;;;;;33.70;20.23;;;10.20;99.90;;;;;;5015782;28;20034;-79
2022/11/16 06:03:01;;;;;;;34.80;19.83;;;10.20;99.90;;;;;;4997559;28;20049;-79
2022/11/16 06:05:32;;;;;;;34.55;19.67;;;10.20;99.90;;;;;;4999022;28;20049;-79
2022/11/16 06:07:59;;;;;;;34.22;19.50;;;10.20;99.90;;;;;;4998385;28;20037;-79
2022/11/16 06:10:25;;;;;;;34.45;17.65;;;10.10;99.90;;;;;;4997536;28;20063;-79
2022/11/16 06:12:52;;;;;;;32.10;18.02;;;10.20;99.90;;;;;;4997211;28;20053;-79
2022/11/16 06:15:19;;;;;;;32.08;18.27;;;10.20;99.90;;;;;;4997113;28;20046;-78
2022/11/16 06:17:46;;;;;;;36.92;19.25;;;10.20;99.90;;;;;;4997636;28;20046;-78
2022/11/16 06:20:13;;;;;;;34.42;17.45;;;10.10;99.90;;;;;;5015084;28;20049;-79
2022/11/16 06:22:40;;;;;;;33.10;17.77;;;10.10;99.90;;;;;;4997941;28;20042;-79
2022/11/16 06:25:07;;;;;;;33.88;17.27;;;10.10;99.90;;;;;;4997606;28;20042;-89
2022/11/16 06:27:41;;;;;;;35.38;19.75;;;10.10;99.90;;;;;;4997150;28;20045;-82
2022/11/16 06:30:09;;;;;;;33.50;18.25;;;10.10;99.90;;;;;;4995594;28;20053;-80
2022/11/16 06:32:37;;;;;;;30.48;17.13;;;10.10;99.90;;;;;;4981828;28;20493;-80
2022/11/16 06:35:05;;;;;;;31.20;17.58;;;10.10;99.90;;;;;;4996864;28;20379;-80
2022/11/16 06:37:33;;;;;;;33.40;18.13;;;10.10;99.90;;;;;;5014880;28;20041;-80
2022/11/16 06:39:59;;;;;;;32.10;18.02;;;10.10;99.90;;;;;;4980927;28;20053;-80
2022/11/16 06:42:26;;;;;;;36.67;18.95;;;10.10;99.90;;;;;;4997151;28;20372;-79
2022/11/16 06:44:54;;;;;;;32.83;17.52;;;10.10;99.90;;;;;;4996845;28;20041;-79
2022/11/16 06:47:25;;;;;;;;;;;10.10;99.90;;;;;;4996740;28;20415;-79
2022/11/16 06:49:51;;;;;;;34.97;18.40;;;10.00;99.90;;;;;;4997141;28;19916;-79
2022/11/16 06:52:21;;;;;;;44.28;18.80;;;10.00;99.90;;;;;;4997748;28;20041;-78
2022/11/16 06:54:47;;;;;;;37.75;19.05;;;10.00;99.90;;;;;;5002337;28;20022;-78
2022/11/16 06:57:13;;;;;;;35.60;19.08;;;9.90;99.90;;;;;;5017769;28;20036;-79
2022/11/16 06:59:39;;;;;;;38.35;19.00;;;10.00;99.90;;;;;;4999285;28;20045;-78
2022/11/16 07:02:11;;;;;;;35.65;19.13;;;9.90;99.90;;;;;;4986468;28;20400;-78
2022/11/16 07:04:39;;;;;;;35.13;19.35;;;9.90;99.90;;;;;;5000191;28;20046;-79
2022/11/16 07:07:05;;;;;;;39.40;20.63;;;10.00;99.90;;;;;;5017184;28;20470;-78
2022/11/16 07:09:33;;;;;;;34.33;19.40;;;10.00;99.90;;;;;;5000254;28;20038;-78
2022/11/16 07:12:00;;;;;;;37.47;19.20;;;10.00;99.90;;;;;;4999735;28;20041;-79
2022/11/16 07:14:29;;;;;;;37.22;20.42;;;10.00;99.90;;;;;;4997403;28;20237;-78
2022/11/16 07:16:56;;;;;;;40.55;20.38;;;9.90;99.90;;;;;;5022499;28;20026;-79
2022/11/16 07:19:22;;;;;;;38.83;21.50;;;9.90;99.90;;;;;;5019164;28;20052;-81
2022/11/16 07:21:48;;;;;;;44.55;21.38;;;9.90;99.90;;;;;;5029964;28;20040;-80
2022/11/16 07:24:17;;;;;;;38.42;21.17;;;9.90;99.90;;;;;;4996586;28;20041;-79
2022/11/16 07:26:43;;;;;;;46.42;22.17;;;9.90;99.90;;;;;;4996499;28;20034;-79
2022/11/16 07:29:15;;;;;;;42.53;19.65;;;9.90;99.90;;;;;;4980774;28;20048;-80
2022/11/16 07:31:47;;;;;;;36.58;18.98;;;9.90;99.90;;;;;;4996348;28;20356;-80
2022/11/16 07:34:34;;;;;;;40.28;20.77;;;10.00;99.90;;;;;;4982528;28;20048;-79
2022/11/16 07:37:06;;;;;;;37.65;20.58;;;10.10;99.90;;;;;;4996219;28;20045;-79
2022/11/16 07:39:33;;;;;;;40.80;21.88;;;10.20;99.90;;;;;;5013571;28;20041;-80
2022/11/16 07:41:59;;;;;;;43.00;21.80;;;10.30;99.90;;;;;;4995753;28;20049;-80
2022/11/16 07:44:44;;;;;;;38.88;19.77;;;10.30;99.90;;;;;;4996623;28;20085;-80
2022/11/16 07:47:10;;;;;;;38.88;20.27;;;10.30;99.90;;;;;;4979609;28;20034;-80
2022/11/16 07:49:37;;;;;;;42.28;19.70;;;10.30;99.90;;;;;;4998523;28;20371;-80
2022/11/16 07:52:10;;;;;;;41.45;21.27;;;10.30;99.90;;;;;;4981197;28;20042;-80
2022/11/16 07:54:50;;;;;;;33.42;18.50;;;10.30;99.90;;;;;;4982288;28;20038;-80
2022/11/16 07:57:18;;;;;;;38.38;21.05;;;10.50;99.90;;;;;;4995735;28;20037;-80
2022/11/16 07:59:44;;;;;;;31.40;19.05;;;11.00;99.90;;;;;;4995723;28;20042;-80
2022/11/16 08:02:11;;;;;;;37.88;18.15;;;11.10;99.90;;;;;;4980567;28;20490;-80
2022/11/16 08:04:39;;;;;;;25.95;16.83;;;11.50;99.90;;;;;;4995676;28;20038;-80
2022/11/16 08:07:07;;;;;;;24.02;15.20;;;11.40;99.90;;;;;;4979877;28;20053;-79
2022/11/16 08:09:39;;;;;;;20.23;14.00;;;11.20;99.90;;;;;;4995888;28;20356;-80
2022/11/16 08:12:07;;;;;;;26.23;14.40;;;11.10;99.90;;;;;;4995703;28;20042;-80
2022/11/16 08:14:33;;;;;;;23.42;15.93;;;11.00;99.90;;;;;;4979388;28;20406;-79
2022/11/16 08:17:02;;;;;;;22.30;13.48;;;10.90;99.90;;;;;;4995639;28;20045;-79
2022/11/16 08:19:29;;;;;;;24.90;13.13;;;10.90;99.90;;;;;;4995380;28;20463;-79
2022/11/16 08:21:56;;;;;;;18.17;10.55;;;10.90;99.90;;;;;;4995688;28;20356;-78
2022/11/16 08:24:24;;;;;;;16.75;10.63;;;10.70;99.90;;;;;;4994830;28;20064;-79
2022/11/16 08:26:51;;;;;;;16.17;9.85;;;10.60;99.90;;;;;;4995442;28;20042;-78
2022/11/16 08:29:17;;;;;;;15.32;8.75;;;10.60;99.90;;;;;;4995391;28;20040;-80
2022/11/16 08:31:48;;;;;;;;;;;10.60;99.90;;;;;;4980449;28;20041;-79
2022/11/16 08:34:18;;;;;;;13.13;7.75;;;10.60;99.90;;;;;;4994748;28;19905;-80
2022/11/16 08:36:48;;;;;;;14.88;6.85;;;10.70;99.90;;;;;;4995103;28;20038;-79
2022/11/16 08:39:17;;;;;;;12.68;5.82;;;10.80;99.90;;;;;;4994859;28;20482;-79
2022/11/16 08:41:44;;;;;;;10.63;5.32;;;10.90;99.90;;;;;;4997042;28;20049;-79
2022/11/16 08:44:11;;;;;;;10.75;4.80;;;10.90;99.90;;;;;;4979016;28;20057;-79
2022/11/16 08:46:40;;;;;;;10.50;4.38;;;11.00;99.90;;;;;;4995673;28;20021;-79
2022/11/16 08:49:17;;;;;;;7.93;4.50;;;11.00;99.90;;;;;;4994524;28;20042;-80
2022/11/16 08:51:43;;;;;;;10.20;4.78;;;10.90;99.90;;;;;;4994741;28;20475;-79
2022/11/16 08:54:09;;;;;;;11.65;5.97;;;10.90;99.90;;;;;;4981230;28;20033;-79
2022/11/16 08:56:38;;;;;;;10.18;4.00;;;10.90;99.90;;;;;;4998605;28;20033;-80
2022/11/16 08:59:04;;;;;;;7.30;4.43;;;10.80;99.90;;;;;;4998654;28;20045;-79
2022/11/16 09:01:31;;;;;;;10.30;6.20;;;11.00;99.90;;;;;;4998263;28;20375;-81
2022/11/16 09:03:58;;;;;;;11.55;5.55;;;11.20;99.90;;;;;;5016690;28;20034;-80
2022/11/16 09:06:26;;;;;;;10.38;5.88;;;11.30;99.90;;;;;;5016376;28;20045;-80
2022/11/16 09:08:52;;;;;;;8.90;4.90;;;11.30;99.90;;;;;;5003472;28;20030;-80
2022/11/16 09:11:21;;;;;;;7.13;4.00;;;11.50;99.90;;;;;;5016916;28;20033;-80
2022/11/16 09:13:49;;;;;;;11.50;5.25;;;11.60;99.90;;;;;;4998204;28;20475;-80
2022/11/16 09:16:16;;;;;;;10.48;4.28;;;11.80;99.90;;;;;;4982410;28;20037;-80
2022/11/16 09:18:45;;;;;;;10.57;4.18;;;12.00;99.90;;;;;;4999417;28;20038;-80
2022/11/16 09:21:16;;;;;;;6.40;3.80;;;12.00;99.90;;;;;;5016611;28;20360;-80
2022/11/16 09:23:42;;;;;;;7.85;3.05;;;11.80;99.90;;;;;;5016827;28;20038;-80
2022/11/16 09:26:08;;;;;;;10.15;3.53;;;11.80;99.90;;;;;;4998503;28;20026;-80
2022/11/16 09:28:34;;;;;;;7.05;3.03;;;11.90;99.90;;;;;;4998189;28;20361;-81
2022/11/16 09:31:03;;;;;;;9.45;3.65;;;12.00;99.90;;;;;;5016697;28;20403;-80
2022/11/16 09:33:30;;;;;;;6.95;2.67;;;12.10;99.90;;;;;;5016341;28;20037;-81
2022/11/16 09:36:05;;;;;;;9.75;2.53;;;11.80;99.90;;;;;;5015551;28;20038;-80
2022/11/16 09:38:42;;;;;;;7.60;2.45;;;11.70;99.90;;;;;;4981800;28;20045;-81
2022/11/16 09:41:15;;;;;;;7.05;2.60;;;11.70;99.90;;;;;;5015923;28;20033;-81
2022/11/16 09:44:18;;;;;;;5.25;2.97;;;11.80;99.90;;;;;;5015567;28;20033;-80
2022/11/16 09:46:50;;;;;;;8.38;2.80;;;11.80;99.90;;;;;;4982098;28;20034;-80
2022/11/16 09:49:24;;;;;;;10.18;2.80;;;11.70;99.90;;;;;;5016055;28;20336;-81
2022/11/16 09:51:56;;;;;;;7.95;3.25;;;11.80;99.90;;;;;;4981872;28;20042;-81
2022/11/16 09:54:27;;;;;;;8.90;2.95;;;12.10;99.90;;;;;;4997728;28;20045;-81
2022/11/16 09:56:58;;;;;;;6.18;1.60;;;12.20;99.90;;;;;;5015633;28;20040;-81
2022/11/16 09:59:28;;;;;;;5.95;1.67;;;12.10;99.90;;;;;;5015505;28;20038;-81
2022/11/16 10:01:56;;;;;;;9.02;2.53;;;12.00;99.90;;;;;;5015741;28;20379;-81
2022/11/16 10:04:37;;;;;;;4.13;1.67;;;12.10;99.90;;;;;;5014809;28;20049;-82
2022/11/16 10:07:07;;;;;;;6.13;1.50;;;12.20;99.90;;;;;;5015659;28;20041;-82
2022/11/16 10:09:34;;;;;;;8.43;1.63;;;12.10;99.90;;;;;;4997912;28;20044;-82
2022/11/16 10:12:00;;;;;;;8.63;1.42;;;12.10;99.90;;;;;;5016528;28;20045;-82
2022/11/16 10:14:48;;;;;;;5.65;1.33;;;12.20;99.90;;;;;;5014942;28;20030;-82
2022/11/16 10:17:24;;;;;;;6.18;1.50;;;12.20;99.90;;;;;;5015576;28;20045;-82
2022/11/16 10:19:59;;;;;;;12.43;3.05;;;12.30;99.90;;;;;;4997801;28;20041;-82
2022/11/16 10:22:57;;;;;;;4.05;1.10;;;12.20;99.90;;;;;;5016060;28;20033;-82
2022/11/16 10:25:30;;;;;;;5.80;1.15;;;12.10;99.90;;;;;;5014542;28;20036;-83
2022/11/16 10:28:16;;;;;;;7.80;1.08;;;12.10;99.60;;;;;;5015026;28;20041;-82
2022/11/16 10:30:53;;;;;;;5.55;2.08;;;12.00;97.30;;;;;;5014537;28;20042;-84
2022/11/16 10:33:23;;;;;;;7.13;1.20;;;12.20;99.90;;;;;;5014922;28;20032;-82
2022/11/16 10:35:52;;;;;;;8.27;1.27;;;12.30;99.90;;;;;;5015032;28;20459;-83
2022/11/16 10:38:29;;;;;;;6.43;2.05;;;12.50;99.90;;;;;;5014573;28;20045;-82
2022/11/16 10:41:17;;;;;;;4.53;1.13;;;12.60;99.90;;;;;;4997089;28;20030;-83
2022/11/16 10:43:44;;;;;;;4.70;1.23;;;12.70;95.40;;;;;;4996145;28;20042;-83
2022/11/16 10:46:24;;;;;;;3.03;1.55;;;12.80;98.40;;;;;;5014501;28;20030;-82
2022/11/16 10:48:59;;;;;;;3.28;1.17;;;12.90;96.00;;;;;;4996431;28;20046;-82
2022/11/16 10:51:26;;;;;;;2.67;1.15;;;13.10;93.00;;;;;;4996852;28;20045;-82
2022/11/16 10:53:53;;;;;;;4.68;1.05;;;13.50;83.80;;;;;;5014496;28;20033;-81
2022/11/16 10:56:21;;;;;;;5.25;1.48;;;13.80;68.40;;;;;;5014249;28;20448;-81
2022/11/16 10:58:53;;;;;;;7.60;2.03;;;14.00;56.90;;;;;;5013890;28;20026;-82
2022/11/16 11:01:38;;;;;;;6.03;2.03;;;13.90;73.30;;;;;;5014412;28;20034;-80
2022/11/16 11:04:19;;;;;;;3.22;1.02;;;13.90;64.20;;;;;;5014594;28;20041;-82
2022/11/16 11:06:50;;;;;;;4.90;2.17;;;13.80;69.40;;;;;;5014293;28;20367;-82
2022/11/16 11:09:29;;;;;;;11.02;2.97;;;13.90;69.50;;;;;;5014065;28;20026;-81
2022/11/16 11:15:02;;;;;;;4.15;1.35;;;13.80;57.30;;;;;;5014004;28;20040;-79
2022/11/16 11:17:30;;;;;;;3.95;0.93;;;13.70;69.70;;;;;;5012560;28;20034;-81
2022/11/16 11:20:19;;;;;;;3.92;0.90;;;13.80;75.70;;;;;;4996564;28;20041;-81
2022/11/16 11:22:55;;;;;;;5.97;1.00;;;13.90;86.60;;;;;;4996090;28;20483;-80
2022/11/16 11:25:23;;;;;;;5.05;0.98;;;14.00;76.90;;;;;;5014978;28;20028;-82
2022/11/16 11:27:58;;;;;;;3.30;0.77;;;13.90;63.70;;;;;;5015446;28;20443;-80
2022/11/16 11:30:24;;;;;;;3.70;1.42;;;14.00;63.60;;;;;;5015746;28;20069;-81
2022/11/16 11:32:51;;;;;;;3.13;0.93;;;13.80;52.40;;;;;;5015657;28;20026;-80
2022/11/16 11:35:36;;;;;;;3.75;1.02;;;13.60;50.50;;;;;;5033814;28;20029;-79
2022/11/16 11:38:03;;;;;;;4.57;0.80;;;13.10;47.50;;;;;;5014830;28;20451;-80
2022/11/16 11:40:30;;;;;;;4.00;0.75;;;12.80;69.80;;;;;;5014417;28;20408;-79
2022/11/16 11:43:04;;;;;;;2.65;1.90;;;12.80;68.30;;;;;;5014275;28;20363;-81
2022/11/16 11:45:43;;;;;;;2.78;1.17;;;12.80;85.80;;;;;;5013567;28;20029;-81
2022/11/16 11:48:34;;;;;;;4.50;2.00;;;12.80;89.50;;;;;;5013723;28;20037;-81
2022/11/16 11:51:22;;;;;;;3.47;0.77;;;12.90;91.70;;;;;;5013732;28;20033;-80
2022/11/16 11:53:56;;;;;;;3.58;0.98;;;12.90;91.70;;;;;;5012894;28;20025;-79
2022/11/16 11:56:23;;;;;;;3.40;1.20;;;13.10;76.50;;;;;;4996596;28;20041;-80
2022/11/16 11:58:50;;;;;;;7.20;1.60;;;13.30;78.40;;;;;;5013359;28;20025;-80
2022/11/16 12:01:26;;;;;;;3.05;0.75;;;13.50;64.10;;;;;;5013244;28;20033;-80
2022/11/16 12:04:27;;;;;;;7.28;1.30;;;13.60;56.30;;;;;;4979192;28;20038;-80
2022/11/16 12:07:51;;;;;;;4.20;0.80;;;13.80;62.20;;;;;;5014460;28;20022;-78
2022/11/16 12:10:38;;;;;;;4.47;1.13;;;13.80;27.70;;;;;;4914711;29;20649;-81
2022/11/16 12:13:19;;;;;;;3.13;1.20;;;13.70;48.10;;;;;;5007665;28;20053;-80
2022/11/16 12:16:07;;;;;;;3.58;1.15;;;13.70;51.60;;;;;;4994751;28;20410;-79
2022/11/16 12:18:45;;;;;;;6.78;1.38;;;13.70;41.00;;;;;;5012901;28;20026;-78
2022/11/16 12:21:28;;;;;;;4.75;1.38;;;13.50;54.80;;;;;;5013777;28;20053;-78
2022/11/16 12:24:24;;;;;;;6.03;1.10;;;13.20;50.90;;;;;;5012288;28;20042;-79
2022/11/16 12:27:06;;;;;;;6.65;1.25;;;13.20;59.70;;;;;;5012792;28;20034;-79
2022/11/16 12:29:33;;;;;;;5.57;1.40;;;13.40;70.10;;;;;;4990019;28;20057;-79
2022/11/16 12:32:20;;;;;;;5.53;1.30;;;13.40;49.00;;;;;;4992949;28;20046;-79
2022/11/16 12:35:11;;;;;;;6.13;1.63;;;13.40;54.20;;;;;;4992763;28;20038;-79
2022/11/16 12:37:48;;;;;;;;;;;13.50;66.90;;;;;;4992846;28;20034;-79
2022/11/16 12:40:41;;;;;;;4.65;1.15;;;13.40;51.20;;;;;;4993153;28;19936;-79
2022/11/16 12:43:15;;;;;;;4.25;1.63;;;13.40;56.30;;;;;;4992966;28;20046;-79
2022/11/16 12:45:49;;;;;;;9.07;2.20;;;13.50;58.20;;;;;;4974750;28;20053;-80
2022/11/16 12:48:37;;;;;;;4.47;1.23;;;13.70;58.30;;;;;;4993681;28;20038;-79
2022/11/16 12:51:09;;;;;;;5.00;0.95;;;13.70;41.00;;;;;;4975702;28;20042;-78
2022/11/16 12:53:48;;;;;;;5.97;1.05;;;13.50;53.90;;;;;;4974948;28;20047;-78
2022/11/16 12:56:33;;;;;;;4.78;1.55;;;13.50;52.70;;;;;;4992870;28;20035;-76
2022/11/16 12:59:02;;;;;;;5.28;1.00;;;13.40;51.00;;;;;;4993121;28;20483;-77
2022/11/16 13:01:44;;;;;;;4.45;0.75;;;13.30;53.00;;;;;;4992721;28;20034;-77
2022/11/16 13:04:44;;;;;;;5.13;1.30;;;13.40;52.20;;;;;;4993324;28;20046;-75
2022/11/16 13:07:23;;;;;;;3.28;0.90;;;13.20;50.80;;;;;;4993233;28;20038;-76
2022/11/16 13:10:13;;;;;;;7.30;1.27;;;13.30;53.40;;;;;;4992629;28;20038;-76
2022/11/16 13:12:43;;;;;;;3.35;1.00;;;13.40;50.30;;;;;;4992272;28;20045;-78
2022/11/16 13:15:18;;;;;;;3.63;1.67;;;13.50;53.30;;;;;;4993250;28;20030;-77
2022/11/16 13:17:53;;;;;;;10.05;1.20;;;13.60;54.40;;;;;;4992291;28;20114;-78
2022/11/16 13:20:25;;;;;;;4.72;1.10;;;13.80;49.90;;;;;;4992556;28;20038;-79
2022/11/16 13:23:18;;;;;;;7.68;1.00;;;14.00;37.10;;;;;;4973982;28;20050;-76
2022/11/16 13:25:59;;;;;;;5.78;1.40;;;14.10;32.90;;;;;;4993052;28;20396;-78
2022/11/16 13:28:28;;;;;;;10.07;1.92;;;14.10;33.70;;;;;;4992480;28;20046;-77
2022/11/16 13:31:20;;;;;;;3.63;1.25;;;14.20;20.00;;;;;;5008480;28;20050;-78
2022/11/16 13:33:49;;;;;;;3.75;1.45;;;14.20;26.50;;;;;;5011792;28;20045;-78
2022/11/16 13:36:30;;;;;;;5.03;1.35;;;14.20;32.30;;;;;;5012843;28;20037;-77
2022/11/16 13:38:57;;;;;;;7.95;1.88;;;14.20;29.60;;;;;;5011947;28;20030;-77
2022/11/16 13:41:34;;;;;;;12.25;2.38;;;14.10;31.30;;;;;;5016098;28;20041;-76
2022/11/16 13:44:03;;;;;;;6.43;1.73;;;13.90;31.70;;;;;;5016195;28;20037;-76
2022/11/16 13:46:44;;;;;;;3.97;1.38;;;13.60;39.70;;;;;;4998333;28;20038;-77